.
WxDataArchive / Data Records for 2013-02-23
2013-02-22 February 2013 2013-02-24

Data Records for Saturday, 23 February 2013

Time	Temp	Chill	HIndex	Humid	Dewpt	 Wind 	HiWind	WindDir	Rain 	Barom 
-----	----	-----	------	-----	-----	------	------	-------	-----	----- 
00:00	31.5	31.5	31.5	92	29.4	2	4	248	0.00	29.954 
00:05	31.2	31.2	31.2	91	28.9	2	5	248	0.00	29.954 
00:10	31.0	31.0	31.0	91	28.7	2	5	248	0.00	29.954 
00:15	30.9	30.9	30.9	91	28.6	2	4	248	0.00	29.951 
00:20	30.9	30.9	30.9	91	28.6	1	4	248	0.00	29.951 
00:25	30.7	30.7	30.7	91	28.4	2	7	248	0.00	29.951 
00:30	30.7	30.7	30.7	90	28.1	1	5	248	0.00	29.948 
00:35	30.6	30.6	30.6	89	27.8	2	4	248	0.00	29.948 
00:40	30.6	30.6	30.6	89	27.8	2	5	248	0.00	29.948 
00:45	30.6	30.6	30.6	88	27.5	2	5	248	0.00	29.950 
00:50	30.6	30.6	30.6	87	27.2	2	6	248	0.00	29.950 
00:55	30.6	30.6	30.6	87	27.2	2	5	248	0.00	29.950 
01:00	30.6	30.6	30.6	86	26.9	1	4	248	0.00	29.954 
01:05	30.6	30.6	30.6	86	26.9	2	6	248	0.00	29.954 
01:10	30.6	30.6	30.6	86	26.9	1	4	248	0.00	29.954 
01:15	30.6	30.6	30.6	85	26.6	1	4	248	0.00	29.951 
01:20	30.6	30.6	30.6	85	26.6	1	4	248	0.00	29.951 
01:25	30.4	30.4	30.4	84	26.2	2	4	248	0.00	29.951 
01:30	30.3	30.3	30.3	84	26.1	2	6	248	0.00	29.950 
01:35	30.1	30.1	30.1	83	25.6	2	4	248	0.00	29.950 
01:40	30.1	30.1	30.1	82	25.3	2	5	248	0.00	29.950 
01:45	30.1	30.1	30.1	81	25.0	1	4	248	0.00	29.949 
01:50	30.0	30.0	30.0	80	24.6	2	4	248	0.00	29.949 
01:55	30.0	30.0	30.0	79	24.3	2	7	248	0.00	29.949 
02:00	29.8	29.8	29.8	78	23.8	2	6	248	0.00	29.955 
02:05	29.8	29.8	29.8	78	23.8	2	4	248	0.00	29.955 
02:10	29.8	29.8	29.8	78	23.8	1	5	248	0.00	29.955 
02:15	29.8	29.8	29.8	78	23.8	2	6	248	0.00	29.946 
02:20	29.8	29.8	29.8	78	23.8	1	6	248	0.00	29.946 
02:25	29.7	29.7	29.7	78	23.7	2	6	248	0.00	29.946 
02:30	29.7	29.7	29.7	79	24.0	1	5	248	0.00	29.946 
02:35	29.7	29.7	29.7	79	24.0	0	2	248	0.00	29.946 
02:40	29.7	29.7	29.7	79	24.0	0	2	248	0.00	29.946 
02:45	29.7	29.7	29.7	79	24.0	1	3	248	0.00	29.949 
02:50	29.5	29.5	29.5	79	23.8	2	5	248	0.00	29.949 
02:55	29.4	29.4	29.4	78	23.4	2	6	270	0.00	29.949 
03:00	29.4	29.4	29.4	78	23.4	1	6	225	0.00	29.948 
03:05	29.4	29.4	29.4	77	23.1	2	6	248	0.00	29.948 
03:10	29.4	29.4	29.4	77	23.1	1	4	248	0.00	29.948 
03:15	29.3	29.3	29.3	77	23.0	1	4	248	0.00	29.944 
03:20	29.1	29.1	29.1	76	22.5	2	5	248	0.00	29.944 
03:25	29.1	29.1	29.1	75	22.2	1	4	225	0.00	29.944 
03:30	29.0	29.0	29.0	74	21.8	2	5	248	0.00	29.937 
03:35	29.0	29.0	29.0	73	21.4	2	6	248	0.00	29.937 
03:40	28.8	28.8	28.8	73	21.3	2	5	248	0.00	29.937 
03:45	28.8	28.8	28.8	73	21.3	2	5	248	0.00	29.939 
03:50	28.7	28.7	28.7	73	21.2	2	6	248	0.00	29.939 
03:55	28.7	28.7	28.7	73	21.2	1	4	248	0.00	29.939 
04:00	28.5	28.5	28.5	73	21.0	2	7	248	0.00	29.940 
04:05	28.5	28.5	28.5	73	21.0	1	4	248	0.00	29.940 
04:10	28.5	28.5	28.5	74	21.3	2	5	248	0.00	29.940 
04:15	28.5	28.5	28.5	74	21.3	1	5	248	0.00	29.938 
04:20	28.4	28.4	28.4	74	21.2	2	5	248	0.00	29.938 
04:25	28.4	28.4	28.4	75	21.5	1	4	248	0.00	29.938 
04:30	28.4	28.4	28.4	75	21.5	1	3	248	0.00	29.937 
04:35	28.2	28.2	28.2	75	21.3	1	4	248	0.00	29.937 
04:40	28.2	28.2	28.2	76	21.6	1	3	248	0.00	29.937 
04:45	28.2	28.2	28.2	76	21.6	1	2	248	0.00	29.940 
04:50	28.2	28.2	28.2	76	21.6	1	5	248	0.00	29.940 
04:55	28.2	28.2	28.2	76	21.6	1	5	248	0.00	29.940 
05:00	28.2	28.2	28.2	76	21.6	1	3	248	0.00	29.939 
05:05	28.2	28.2	28.2	77	21.9	1	3	248	0.00	29.939 
05:10	28.2	28.2	28.2	77	21.9	1	3	248	0.00	29.939 
05:15	28.2	28.2	28.2	77	21.9	1	3	248	0.00	29.946 
05:20	28.2	28.2	28.2	77	21.9	1	3	248	0.00	29.946 
05:25	28.2	28.2	28.2	77	21.9	0	3	248	0.00	29.946 
05:30	28.1	28.1	28.1	77	21.8	1	3	248	0.00	29.946 
05:35	28.1	28.1	28.1	78	22.1	1	3	248	0.00	29.946 
05:40	28.1	28.1	28.1	77	21.8	1	4	248	0.00	29.946 
05:45	27.9	27.9	27.9	77	21.6	2	6	248	0.00	29.949 
05:50	27.8	27.8	27.8	77	21.5	0	1	248	0.00	29.949 
05:55	27.6	27.6	27.6	77	21.4	1	3	248	0.00	29.949 
06:00	27.6	27.6	27.6	77	21.4	1	4	248	0.00	29.951 
06:05	27.6	27.6	27.6	77	21.4	1	4	248	0.00	29.951 
06:10	27.6	27.6	27.6	77	21.4	1	4	248	0.00	29.951 
06:15	27.6	27.6	27.6	77	21.4	1	3	248	0.00	29.959 
06:20	27.6	27.6	27.6	77	21.4	1	4	248	0.00	29.959 
06:25	27.6	27.6	27.6	77	21.4	2	5	225	0.00	29.959 
06:30	27.6	27.6	27.6	77	21.4	1	3	225	0.00	29.956 
06:35	27.5	27.5	27.5	77	21.3	1	3	225	0.00	29.956 
06:40	27.3	27.3	27.3	77	21.1	2	5	248	0.00	29.956 
06:45	27.3	27.3	27.3	77	21.1	1	4	248	0.00	29.963 
06:50	27.3	27.3	27.3	77	21.1	1	3	248	0.00	29.963 
06:55	27.3	27.3	27.3	77	21.1	1	4	248	0.00	29.963 
07:00	27.3	27.3	27.3	77	21.1	1	5	248	0.00	29.963 
07:05	27.3	27.3	27.3	77	21.1	2	4	248	0.00	29.963 
07:10	27.2	27.2	27.2	77	21.0	1	6	292	0.00	29.963 
07:15	27.2	27.2	27.2	77	21.0	1	5	248	0.00	29.968 
07:20	27.0	27.0	27.0	77	20.8	1	4	248	0.00	29.968 
07:25	27.0	27.0	27.0	77	20.8	2	4	248	0.00	29.968 
07:30	27.0	27.0	27.0	77	20.8	1	4	248	0.00	29.971 
07:35	27.0	27.0	27.0	77	20.8	2	5	248	0.00	29.971 
07:40	27.0	27.0	27.0	78	21.1	1	4	248	0.00	29.971 
07:45	27.0	27.0	27.0	78	21.1	1	3	248	0.00	29.976 
07:50	27.0	27.0	27.0	77	20.8	1	4	248	0.00	29.976 
07:55	27.0	27.0	27.0	77	20.8	1	4	248	0.00	29.976 
08:00	27.2	27.2	27.2	77	21.0	2	5	248	0.00	29.980 
08:05	27.2	27.2	27.2	77	21.0	1	5	248	0.00	29.980 
08:10	27.3	27.3	27.3	77	21.1	1	4	248	0.00	29.980 
08:15	27.3	27.3	27.3	77	21.1	1	3	248	0.00	29.983 
08:20	27.3	27.3	27.3	78	21.4	1	3	248	0.00	29.983 
08:25	27.3	27.3	27.3	78	21.4	1	2	248	0.00	29.983 
08:30	27.3	27.3	27.3	78	21.4	1	2	248	0.00	29.985 
08:35	27.3	27.3	27.3	78	21.4	1	5	248	0.00	29.985 
08:40	27.5	27.5	27.5	78	21.6	1	5	248	0.00	29.985 
08:45	27.5	27.5	27.5	78	21.6	1	4	248	0.00	29.987 
08:50	27.5	27.5	27.5	77	21.3	2	4	248	0.00	29.987 
08:55	27.3	27.3	27.3	77	21.1	1	4	248	0.00	29.987 
09:00	27.5	27.5	27.5	77	21.3	1	6	270	0.00	29.983 
09:05	27.5	27.5	27.5	76	20.9	2	4	270	0.00	29.983 
09:10	27.5	27.5	27.5	76	20.9	2	9	248	0.00	29.983 
09:15	27.5	27.5	27.5	76	20.9	2	5	248	0.00	29.983 
09:20	27.6	27.6	27.6	75	20.7	2	5	248	0.00	29.983 
09:25	27.6	27.6	27.6	74	20.4	1	5	248	0.00	29.983 
09:30	27.6	27.6	27.6	73	20.1	2	4	248	0.00	29.980 
09:35	27.6	27.6	27.6	73	20.1	1	3	248	0.00	29.980 
09:40	27.8	27.8	27.8	73	20.3	1	3	248	0.00	29.980 
09:45	27.8	27.8	27.8	73	20.3	1	3	248	0.00	29.979 
09:50	27.8	27.8	27.8	73	20.3	2	6	248	0.00	29.979 
09:55	27.6	27.6	27.6	72	19.8	2	6	248	0.00	29.979 
10:00	27.6	27.6	27.6	73	20.1	1	3	248	0.00	29.973 
10:05	27.8	27.8	27.8	72	20.0	1	2	248	0.00	29.973 
10:10	27.9	27.9	27.9	72	20.1	1	2	248	0.00	29.973 
10:15	28.1	28.1	28.1	72	20.3	1	3	248	0.00	29.966 
10:20	27.9	27.9	27.9	71	19.7	2	6	248	0.00	29.966 
10:25	27.9	27.9	27.9	71	19.7	2	5	248	0.00	29.966 
10:30	27.8	27.8	27.8	71	19.6	1	3	248	0.00	29.966 
10:35	27.8	27.8	27.8	72	20.0	1	4	248	0.00	29.966 
10:40	27.8	27.8	27.8	72	20.0	2	5	248	0.00	29.966 
10:45	27.8	27.8	27.8	72	20.0	1	4	248	0.00	29.977 
10:50	27.8	27.8	27.8	73	20.3	1	3	248	0.00	29.977 
10:55	27.8	27.8	27.8	73	20.3	1	4	248	0.00	29.977 
11:00	27.8	27.8	27.8	72	20.0	2	3	248	0.00	29.975 
11:05	27.6	27.6	27.6	71	19.4	2	4	248	0.00	29.975 
11:10	27.6	27.6	27.6	71	19.4	1	3	248	0.00	29.975 
11:15	27.6	27.6	27.6	71	19.4	1	3	248	0.00	29.973 
11:20	27.8	27.8	27.8	71	19.6	1	3	248	0.00	29.973 
11:25	27.9	27.9	27.9	71	19.7	1	3	248	0.00	29.973 
11:30	28.1	28.1	28.1	71	19.9	1	3	248	0.00	29.967 
11:35	28.2	28.2	28.2	70	19.7	1	3	248	0.00	29.967 
11:40	28.4	28.4	28.4	69	19.5	1	5	248	0.00	29.967 
11:45	28.7	28.7	28.7	69	19.8	1	3	248	0.00	29.974 
11:50	29.0	29.0	29.0	69	20.1	0	3	248	0.00	29.974 
11:55	29.0	29.0	29.0	68	19.8	2	7	248	0.00	29.974 
12:00	29.1	29.1	29.1	69	20.2	1	3	225	0.00	29.972 
12:05	29.1	29.1	29.1	68	19.9	1	4	248	0.00	29.972 
12:10	29.1	29.1	29.1	68	19.9	1	3	248	0.00	29.972 
12:15	29.3	29.3	29.3	69	20.4	1	4	248	0.00	29.971 
12:20	29.4	29.4	29.4	68	20.2	2	4	248	0.00	29.971 
12:25	29.4	29.4	29.4	68	20.2	2	6	248	0.00	29.971 
12:30	29.4	29.4	29.4	67	19.8	2	4	248	0.00	29.968 
12:35	29.5	29.5	29.5	68	20.3	2	5	248	0.00	29.968 
12:40	29.5	29.5	29.5	68	20.3	1	4	270	0.00	29.968 
12:45	29.7	29.7	29.7	68	20.5	2	5	270	0.00	29.961 
12:50	29.7	29.7	29.7	66	19.8	2	4	270	0.00	29.961 
12:55	29.8	29.8	29.8	64	19.1	2	4	248	0.00	29.961 
13:00	30.1	30.1	30.1	64	19.4	2	5	248	0.00	29.949 
13:05	30.4	30.4	30.4	64	19.7	2	4	248	0.00	29.949 
13:10	30.6	30.6	30.6	64	19.9	2	4	248	0.00	29.949 
13:15	30.4	30.4	30.4	64	19.7	2	5	270	0.00	29.948 
13:20	30.4	30.4	30.4	65	20.1	2	5	248	0.00	29.948 
13:25	30.4	30.4	30.4	65	20.1	2	5	248	0.00	29.948 
13:30	30.3	30.3	30.3	65	20.0	2	5	248	0.00	29.949 
13:35	30.1	30.1	30.1	65	19.8	2	5	270	0.00	29.949 
13:40	30.1	30.1	30.1	66	20.1	1	3	248	0.00	29.949 
13:45	30.3	30.3	30.3	66	20.3	1	3	248	0.00	29.947 
13:50	30.4	30.4	30.4	66	20.4	1	3	248	0.00	29.947 
13:55	30.6	30.6	30.6	65	20.3	2	5	248	0.00	29.947 
14:00	30.7	30.7	30.7	66	20.7	1	4	248	0.00	29.939 
14:05	30.9	30.9	30.9	65	20.5	2	4	248	0.00	29.939 
14:10	30.6	30.6	30.6	65	20.3	2	5	270	0.00	29.939 
14:15	30.7	30.7	30.7	65	20.3	1	7	270	0.00	29.935 
14:20	30.9	30.9	30.9	66	20.9	1	5	248	0.00	29.935 
14:25	31.0	31.0	31.0	66	21.0	2	5	248	0.00	29.935 
14:30	30.9	30.9	30.9	65	20.5	2	4	248	0.01	29.933 
14:35	30.7	30.7	30.7	65	20.3	2	6	248	0.00	29.933 
14:40	30.7	30.7	30.7	66	20.7	1	3	248	0.00	29.933 
14:45	30.9	30.9	30.9	66	20.9	1	5	270	0.00	29.926 
14:50	30.9	30.9	30.9	65	20.5	2	6	270	0.00	29.926 
14:55	30.7	30.7	30.7	66	20.7	1	3	270	0.00	29.926 
15:00	30.6	30.6	30.6	65	20.3	2	5	248	0.00	29.921 
15:05	30.6	30.6	30.6	65	20.3	2	4	248	0.00	29.921 
15:10	30.6	30.6	30.6	65	20.3	2	5	225	0.00	29.921 
15:15	30.6	30.6	30.6	66	20.6	1	5	248	0.00	29.926 
15:20	30.7	30.7	30.7	66	20.7	1	4	248	0.00	29.926 
15:25	30.6	30.6	30.6	65	20.3	2	7	248	0.00	29.926 
15:30	30.3	30.3	30.3	65	20.0	2	5	248	0.00	29.933 
15:35	30.1	30.1	30.1	67	20.5	2	5	248	0.00	29.933 
15:40	30.1	30.1	30.1	67	20.5	2	7	248	0.00	29.933 
15:45	30.0	30.0	30.0	66	20.0	2	6	248	0.00	29.933 
15:50	30.1	30.1	30.1	66	20.1	1	3	248	0.00	29.933 
15:55	30.0	30.0	30.0	65	19.7	2	6	270	0.00	29.933 
16:00	30.0	30.0	30.0	65	19.7	2	5	248	0.00	29.939 
16:05	29.8	29.8	29.8	65	19.5	2	4	248	0.00	29.939 
16:10	29.8	29.8	29.8	66	19.8	1	3	270	0.00	29.939 
16:15	29.7	29.7	29.7	66	19.8	2	5	248	0.00	29.941 
16:20	29.7	29.7	29.7	66	19.8	2	5	248	0.00	29.941 
16:25	29.7	29.7	29.7	66	19.8	2	4	270	0.00	29.941 
16:30	29.5	29.5	29.5	67	19.9	1	3	270	0.00	29.943 
16:35	29.5	29.5	29.5	67	19.9	1	5	248	0.00	29.943 
16:40	29.5	29.5	29.5	67	19.9	1	3	248	0.00	29.943 
16:45	29.5	29.5	29.5	67	19.9	2	4	248	0.00	29.944 
16:50	29.4	29.4	29.4	68	20.2	2	4	248	0.00	29.944 
16:55	29.4	29.4	29.4	67	19.8	2	4	248	0.00	29.944 
17:00	29.4	29.4	29.4	68	20.2	1	4	248	0.00	29.945 
17:05	29.4	29.4	29.4	67	19.8	1	3	248	0.00	29.945 
17:10	29.4	29.4	29.4	68	20.2	1	3	248	0.00	29.945 
17:15	29.4	29.4	29.4	68	20.2	1	4	248	0.00	29.942 
17:20	29.3	29.3	29.3	68	20.1	1	3	270	0.00	29.942 
17:25	29.1	29.1	29.1	67	19.5	2	3	270	0.00	29.942 
17:30	29.0	29.0	29.0	67	19.4	1	3	270	0.00	29.948 
17:35	29.0	29.0	29.0	68	19.8	1	2	270	0.00	29.948 
17:40	29.0	29.0	29.0	68	19.8	1	3	248	0.00	29.948 
17:45	28.8	28.8	28.8	68	19.6	1	4	248	0.00	29.952 
17:50	28.7	28.7	28.7	68	19.5	1	5	248	0.00	29.952 
17:55	28.5	28.5	28.5	68	19.3	2	4	248	0.00	29.952 
18:00	28.5	28.5	28.5	68	19.3	1	4	270	0.00	29.953 
18:05	28.4	28.4	28.4	68	19.2	1	4	248	0.00	29.953 
18:10	28.4	28.4	28.4	68	19.2	1	3	248	0.00	29.953 
18:15	28.2	28.2	28.2	68	19.0	1	3	248	0.00	29.957 
18:20	28.1	28.1	28.1	68	18.9	2	4	270	0.00	29.957 
18:25	27.9	27.9	27.9	69	19.1	1	3	270	0.00	29.957 
18:30	27.9	27.9	27.9	69	19.1	0	2	270	0.00	29.962 
18:35	27.9	27.9	27.9	70	19.4	0	2	270	0.00	29.962 
18:40	27.9	27.9	27.9	69	19.1	1	5	248	0.00	29.962 
18:45	27.8	27.8	27.8	69	19.0	2	5	270	0.00	29.965 
18:50	27.8	27.8	27.8	69	19.0	1	3	270	0.00	29.965 
18:55	27.6	27.6	27.6	69	18.8	2	6	248	0.00	29.965 
19:00	27.6	27.6	27.6	70	19.1	1	4	248	0.00	29.968 
19:05	27.6	27.6	27.6	70	19.1	1	3	248	0.00	29.968 
19:10	27.5	27.5	27.5	70	19.0	2	4	292	0.00	29.968 
19:15	27.5	27.5	27.5	70	19.0	1	4	292	0.00	29.969 
19:20	27.5	27.5	27.5	70	19.0	1	4	248	0.00	29.969 
19:25	27.5	27.5	27.5	70	19.0	1	3	248	0.00	29.969 
19:30	27.5	27.5	27.5	71	19.4	1	4	248	0.00	29.971 
19:35	27.5	27.5	27.5	71	19.4	1	4	248	0.00	29.971 
19:40	27.5	27.5	27.5	71	19.4	1	4	248	0.00	29.971 
19:45	27.3	27.3	27.3	71	19.2	0	2	248	0.00	29.977 
19:50	27.3	27.3	27.3	72	19.5	1	6	248	0.00	29.977 
19:55	27.3	27.3	27.3	71	19.2	1	3	270	0.00	29.977 
20:00	27.3	27.3	27.3	72	19.5	1	3	270	0.00	29.981 
20:05	27.3	27.3	27.3	72	19.5	0	2	270	0.00	29.981 
20:10	27.3	27.3	27.3	72	19.5	1	3	315	0.00	29.981 
20:15	27.2	27.2	27.2	72	19.4	1	3	248	0.00	29.978 
20:20	27.2	27.2	27.2	72	19.4	1	3	248	0.00	29.978 
20:25	27.2	27.2	27.2	72	19.4	0	1	248	0.00	29.978 
20:30	27.2	27.2	27.2	73	19.7	0	2	248	0.00	29.982 
20:35	27.2	27.2	27.2	72	19.4	2	5	248	0.00	29.982 
20:40	27.0	27.0	27.0	72	19.2	1	3	248	0.00	29.982 
20:45	27.0	27.0	27.0	72	19.2	0	2	248	0.00	29.980 
20:50	27.0	27.0	27.0	73	19.5	1	4	248	0.00	29.980 
20:55	27.0	27.0	27.0	72	19.2	1	3	248	0.00	29.980 
21:00	27.0	27.0	27.0	72	19.2	2	5	248	0.00	29.972 
21:05	27.0	27.0	27.0	73	19.5	1	4	292	0.00	29.972 
21:10	27.0	27.0	27.0	73	19.5	0	2	248	0.00	29.972 
21:15	26.9	26.9	26.9	73	19.4	1	3	248	0.00	29.972 
21:20	26.9	26.9	26.9	73	19.4	1	2	248	0.00	29.972 
21:25	26.9	26.9	26.9	73	19.4	1	2	248	0.00	29.972 
21:30	26.9	26.9	26.9	73	19.4	1	4	248	0.00	29.975 
21:35	26.7	26.7	26.7	73	19.2	2	3	248	0.00	29.975 
21:40	26.7	26.7	26.7	73	19.2	1	3	270	0.00	29.975 
21:45	26.7	26.7	26.7	73	19.2	0	3	248	0.00	29.973 
21:50	26.7	26.7	26.7	73	19.2	1	3	248	0.00	29.973 
21:55	26.7	26.7	26.7	73	19.2	0	2	248	0.00	29.973 
22:00	26.6	26.6	26.6	73	19.1	0	3	292	0.00	29.976 
22:05	26.6	26.6	26.6	73	19.1	1	3	292	0.00	29.976 
22:10	26.4	26.4	26.4	73	18.9	1	3	338	0.00	29.976 
22:15	26.3	26.3	26.3	73	18.8	1	2	315	0.00	29.972 
22:20	26.3	26.3	26.3	73	18.8	1	3	315	0.00	29.972 
22:25	26.1	26.1	26.1	74	19.0	0	2	315	0.00	29.972 
22:30	26.1	26.1	26.1	73	18.7	1	3	292	0.00	29.974 
22:35	26.0	26.0	26.0	74	18.9	1	3	315	0.00	29.974 
22:40	26.0	26.0	26.0	74	18.9	1	3	248	0.00	29.974 
22:45	26.0	26.0	26.0	74	18.9	0	2	248	0.00	29.971 
22:50	25.8	25.8	25.8	74	18.7	1	2	248	0.00	29.971 
22:55	25.8	25.8	25.8	74	18.7	1	3	248	0.00	29.971 
23:00	25.8	25.8	25.8	74	18.7	0	2	248	0.00	29.971 
23:05	26.0	26.0	26.0	74	18.9	1	3	248	0.00	29.971 
23:10	25.8	25.8	25.8	74	18.7	1	3	248	0.00	29.971 
23:15	25.8	25.8	25.8	74	18.7	0	2	248	0.00	29.970 
23:20	25.8	25.8	25.8	74	18.7	1	2	248	0.00	29.970 
23:25	25.8	25.8	25.8	74	18.7	1	3	248	0.00	29.970 
23:30	25.8	25.8	25.8	74	18.7	1	3	248	0.00	29.969 
23:35	25.8	25.8	25.8	74	18.7	0	2	248	0.00	29.969 
23:40	25.7	25.7	25.7	74	18.6	1	3	248	0.00	29.969 
23:45	25.7	25.7	25.7	74	18.6	1	4	248	0.00	29.969 
23:50	25.7	25.7	25.7	74	18.6	1	5	248	0.00	29.969 
23:55	25.7	25.7	25.7	74	18.6	1	2	292	0.00	29.969 

CoCoRaHS
IN-AL-39
A2 Web Hosting
Creative Commons License
GoDaddy
search engine by freefind advanced

loaded 2018-11-15 14:24:47 • last modified 2010-11-18 10:43:29
Privacy PolicyDisclaimer
• wx.awcolley.com is powered by PmWiki v.2002016 •
• all content (unless otherwise noted) © 2018 A W Colley